Time;durP1;ratioP1;P1;durP2;ratioP2;P2;SDS_P1;SDS_P2;PMS_P1;PMS_P2;Temp;Humidity;BMP_temperature;BMP_pressure;BME280_temperature;BME280_humidity;BME280_pressure;Samples;Min_cycle;Max_cycle;Signal;HPM_P1;HPM_P2
2023/04/03 00:01:15;;;;;;;;;;;5.90;99.90;;;;;;4996503;28;19928;-82
2023/04/03 00:03:41;;;;;;;;;;;5.90;99.90;;;;;;5006288;28;20355;-82
2023/04/03 00:06:10;;;;;;;;;;;5.80;99.90;;;;;;5000448;28;19948;-82
2023/04/03 00:08:36;;;;;;;;;;;5.80;99.90;;;;;;5007090;28;20177;-82
2023/04/03 00:11:02;;;;;;;;;;;5.80;99.90;;;;;;5003178;28;20315;-83
2023/04/03 00:13:31;;;;;;;;;;;5.80;99.90;;;;;;5008393;28;21360;-83
2023/04/03 00:15:57;;;;;;;;;;;5.80;99.90;;;;;;5010179;28;19909;-83
2023/04/03 00:18:24;;;;;;;;;;;5.80;99.90;;;;;;5007429;28;19916;-81
2023/04/03 00:20:49;;;;;;;;;;;5.80;99.90;;;;;;5014860;28;19905;-82
2023/04/03 00:23:15;;;;;;;;;;;5.80;99.90;;;;;;5012153;28;19977;-81
2023/04/03 00:25:40;;;;;;;;;;;5.90;99.90;;;;;;5009035;28;19905;-82
2023/04/03 00:28:06;;;;;;;;;;;5.80;99.90;;;;;;5010865;28;19924;-82
2023/04/03 00:30:32;;;;;;;;;;;5.80;99.90;;;;;;5010042;28;19909;-81
2023/04/03 00:32:58;;;;;;;;;;;5.80;99.90;;;;;;5011767;28;19914;-82
2023/04/03 00:35:26;;;;;;;;;;;5.80;99.90;;;;;;5003936;28;19937;-82
2023/04/03 00:37:52;;;;;;;;;;;5.80;99.90;;;;;;5002501;28;19956;-82
2023/04/03 00:40:18;;;;;;;;;;;5.80;99.90;;;;;;5007646;28;20617;-82
2023/04/03 00:42:45;;;;;;;;;;;5.80;99.90;;;;;;5008848;28;19909;-82
2023/04/03 00:45:11;;;;;;;;;;;5.80;99.90;;;;;;4999241;28;19944;-82
2023/04/03 00:47:45;;;;;;;;;;;5.80;99.90;;;;;;5002762;28;19918;-82
2023/04/03 00:50:12;;;;;;;;;;;5.80;99.90;;;;;;4996215;28;19910;-83
2023/04/03 00:52:40;;;;;;;;;;;5.80;99.90;;;;;;4999463;28;20275;-82
2023/04/03 00:55:10;;;;;;;;;;;5.80;99.90;;;;;;5002356;28;19952;-81
2023/04/03 00:57:36;;;;;;;;;;;5.80;99.90;;;;;;5001323;28;19906;-82
2023/04/03 01:00:07;;;;;;;;;;;5.80;99.90;;;;;;5009398;28;20377;-82
2023/04/03 01:02:32;;;;;;;;;;;5.80;99.90;;;;;;5008656;28;20383;-82
2023/04/03 01:05:04;;;;;;;;;;;5.80;99.90;;;;;;5002704;28;19976;-82
2023/04/03 01:07:31;;;;;;;;;;;5.80;99.90;;;;;;4995117;28;20402;-82
2023/04/03 01:10:00;;;;;;;;;;;5.90;99.90;;;;;;5007004;28;19920;-83
2023/04/03 01:12:29;;;;;;;;;;;5.80;99.90;;;;;;5002657;28;19960;-82
2023/04/03 01:14:59;;;;;;;;;;;5.80;99.90;;;;;;5006165;28;19936;-82
2023/04/03 01:17:31;;;;;;;;;;;5.80;99.90;;;;;;5009038;28;19909;-82
2023/04/03 01:20:12;;;;;;;;;;;5.80;99.90;;;;;;5008178;28;19917;-82
2023/04/03 01:22:51;;;;;;;;;;;5.80;99.90;;;;;;5005304;28;20554;-81
2023/04/03 01:25:17;;;;;;;;;;;5.80;99.90;;;;;;5002553;28;20520;-82
2023/04/03 01:27:47;;;;;;;;;;;5.70;99.90;;;;;;5019256;28;19909;-82
2023/04/03 01:30:14;;;;;;;;;;;5.70;99.90;;;;;;5001688;28;19935;-82
2023/04/03 01:32:45;;;;;;;;;;;5.70;99.90;;;;;;5005940;28;19905;-82
2023/04/03 01:38:10;;;;;;;;;;;5.70;99.90;;;;;;5002741;28;19905;-82
2023/04/03 01:40:40;;;;;;;;;;;5.70;99.90;;;;;;5005140;28;19913;-80
2023/04/03 01:43:14;;;;;;;;;;;5.70;99.90;;;;;;5002660;28;19984;-82
2023/04/03 01:45:46;;;;;;;;;;;5.60;99.90;;;;;;5006676;28;19905;-82
2023/04/03 01:48:12;;;;;;;;;;;5.70;99.90;;;;;;5007635;28;19909;-82
2023/04/03 01:50:39;;;;;;;;;;;5.70;99.90;;;;;;5003315;28;20466;-80
2023/04/03 01:53:11;;;;;;;;;;;5.70;99.90;;;;;;5009094;28;19914;-82
2023/04/03 01:55:37;;;;;;;;;;;5.70;99.90;;;;;;5010451;28;19909;-81
2023/04/03 01:58:02;;;;;;;;;;;5.60;99.90;;;;;;5010280;28;19954;-82
2023/04/03 02:00:30;;;;;;;;;;;5.70;99.90;;;;;;5006284;28;20045;-82
2023/04/03 02:02:56;;;;;;;;;;;5.70;99.90;;;;;;5002003;28;19914;-82
2023/04/03 02:05:22;;;;;;;;;;;5.60;99.90;;;;;;5014916;28;19932;-82
2023/04/03 02:07:52;;;;;;;;;;;5.60;99.90;;;;;;5001715;28;19917;-82
2023/04/03 02:10:25;;;;;;;;;;;5.60;99.90;;;;;;5001916;28;19912;-82
2023/04/03 02:13:00;;;;;;;;;;;5.60;99.90;;;;;;5001945;28;19928;-82
2023/04/03 02:15:32;;;;;;;;;;;5.50;99.90;;;;;;5000950;28;19956;-83
2023/04/03 02:17:58;;;;;;;;;;;5.50;99.90;;;;;;5001067;28;19917;-82
2023/04/03 02:20:28;;;;;;;;;;;5.50;99.90;;;;;;5006015;28;20325;-82
2023/04/03 02:22:55;;;;;;;;;;;5.50;99.90;;;;;;5001246;28;19905;-82
2023/04/03 02:25:21;;;;;;;;;;;5.50;99.90;;;;;;5005791;28;19910;-83
2023/04/03 02:27:52;;;;;;;;;;;5.50;99.90;;;;;;4987785;28;19940;-82
2023/04/03 02:30:29;;;;;;;;;;;5.50;99.90;;;;;;5006496;28;20602;-82
2023/04/03 02:32:57;;;;;;;;;;;5.50;99.90;;;;;;4999919;28;20263;-82
2023/04/03 02:35:22;;;;;;;;;;;5.50;99.90;;;;;;4998590;28;19929;-82
2023/04/03 02:37:50;;;;;;;;;;;5.50;99.90;;;;;;4987522;28;20357;-82
2023/04/03 02:40:17;;;;;;;;;;;5.50;99.90;;;;;;5006937;28;20008;-83
2023/04/03 02:42:46;;;;;;;;;;;5.50;99.90;;;;;;4981751;28;20720;-83
2023/04/03 02:45:11;;;;;;;;;;;5.50;99.90;;;;;;5005966;28;20384;-82
2023/04/03 02:47:38;;;;;;;;;;;5.50;99.90;;;;;;5000912;28;19913;-82
2023/04/03 02:50:05;;;;;;;;;;;5.50;99.90;;;;;;4996541;28;19909;-81
2023/04/03 02:52:32;;;;;;;;;;;5.50;99.90;;;;;;5002811;28;19921;-84
2023/04/03 02:54:57;;;;;;;;;;;5.50;99.90;;;;;;5005410;28;19909;-82
2023/04/03 02:57:25;;;;;;;;;;;5.50;99.90;;;;;;5001602;28;19909;-83
2023/04/03 02:59:52;;;;;;;;;;;5.50;99.90;;;;;;5001268;28;19975;-82
2023/04/03 03:02:31;;;;;;;;;;;5.40;99.90;;;;;;5000843;28;19927;-82
2023/04/03 03:05:00;;;;;;;;;;;5.50;99.90;;;;;;4997119;28;19913;-82
2023/04/03 03:07:31;;;;;;;;;;;5.50;99.90;;;;;;5000458;28;19917;-82
2023/04/03 03:09:57;;;;;;;;;;;5.40;99.90;;;;;;5004148;28;19917;-82
2023/04/03 03:12:24;;;;;;;;;;;5.40;99.90;;;;;;5002404;28;19910;-81
2023/04/03 03:14:50;;;;;;;;;;;5.40;99.90;;;;;;4999961;28;20317;-81
2023/04/03 03:17:28;;;;;;;;;;;5.30;99.90;;;;;;5000736;28;19905;-82
2023/04/03 03:19:55;;;;;;;;;;;5.40;99.90;;;;;;4993170;28;19909;-82
2023/04/03 03:22:21;;;;;;;;;;;5.40;99.90;;;;;;4996082;28;19905;-82
2023/04/03 03:24:52;;;;;;;;;;;5.20;99.90;;;;;;5005930;28;19909;-82
2023/04/03 03:27:19;;;;;;;;;;;5.30;99.90;;;;;;4986323;28;19905;-82
2023/04/03 03:29:51;;;;;;;;;;;5.20;99.90;;;;;;5000155;28;19910;-82
2023/04/03 03:32:18;;;;;;;;;;;5.30;99.90;;;;;;5004844;28;19996;-82
2023/04/03 03:34:43;;;;;;;;;;;5.30;99.90;;;;;;5002978;28;19909;-81
2023/04/03 03:37:15;;;;;;;;;;;5.40;99.90;;;;;;5000388;28;19906;-81
2023/04/03 03:39:51;;;;;;;;;;;5.40;99.90;;;;;;4996965;28;19999;-82
2023/04/03 03:42:16;;;;;;;;;;;5.40;99.90;;;;;;5003972;28;19905;-81
2023/04/03 03:44:44;;;;;;;;;;;5.50;99.90;;;;;;5004818;28;19906;-81
2023/04/03 03:47:10;;;;;;;;;;;5.40;99.90;;;;;;4994870;28;19905;-81
2023/04/03 03:49:52;;;;;;;;;;;5.40;99.90;;;;;;4999085;28;20592;-81
2023/04/03 03:52:22;;;;;;;;;;;5.40;99.90;;;;;;4982157;28;19917;-81
2023/04/03 03:54:54;;;;;;;;;;;5.30;99.90;;;;;;5002486;28;19910;-82
2023/04/03 03:57:22;;;;;;;;;;;5.30;99.90;;;;;;4985730;28;20347;-82
2023/04/03 03:59:48;;;;;;;;;;;5.30;99.90;;;;;;4985538;28;20027;-82
2023/04/03 04:02:14;;;;;;;;;;;5.30;99.90;;;;;;4984146;28;19996;-82
2023/04/03 04:04:41;;;;;;;;;;;5.40;99.90;;;;;;5007850;28;19905;-82
2023/04/03 04:07:07;;;;;;;;;;;5.30;99.90;;;;;;4983070;28;19917;-80
2023/04/03 04:09:38;;;;;;;;;;;5.30;99.90;;;;;;4983183;28;19905;-80
2023/04/03 04:12:06;;;;;;;;;;;5.20;99.90;;;;;;4988474;28;19996;-82
2023/04/03 04:14:49;;;;;;;;;;;5.20;99.90;;;;;;4991105;28;19987;-82
2023/04/03 04:17:21;;;;;;;;;;;5.20;99.90;;;;;;4990525;28;19906;-80
2023/04/03 04:19:53;;;;;;;;;;;5.20;99.90;;;;;;5002122;28;19909;-82
2023/04/03 04:22:18;;;;;;;;;;;5.20;99.90;;;;;;5007767;28;20021;-81
2023/04/03 04:24:44;;;;;;;;;;;5.20;99.90;;;;;;5002642;28;19965;-82
2023/04/03 04:27:21;;;;;;;;;;;5.20;99.90;;;;;;5002770;28;19912;-82
2023/04/03 04:29:52;;;;;;;;;;;5.20;99.90;;;;;;4999870;28;20060;-82
2023/04/03 04:32:21;;;;;;;;;;;5.10;99.90;;;;;;5009326;28;19916;-82
2023/04/03 04:34:50;;;;;;;;;;;5.10;99.90;;;;;;5013140;28;19924;-81
2023/04/03 04:37:15;;;;;;;;;;;5.10;99.90;;;;;;5002259;28;19913;-82
2023/04/03 04:39:47;;;;;;;;;;;5.10;99.90;;;;;;5008232;28;19906;-83
2023/04/03 04:42:16;;;;;;;;;;;5.10;99.90;;;;;;5008068;28;19963;-81
2023/04/03 04:44:44;;;;;;;;;;;5.10;99.90;;;;;;4995396;28;19905;-81
2023/04/03 04:47:10;;;;;;;;;;;5.10;99.90;;;;;;5012318;28;19905;-81
2023/04/03 04:49:37;;;;;;;;;;;5.10;99.90;;;;;;4991584;28;19912;-82
2023/04/03 04:52:06;;;;;;;;;;;5.10;99.90;;;;;;5009777;28;20015;-81
2023/04/03 04:54:31;;;;;;;;;;;4.90;99.90;;;;;;5009306;28;19917;-82
2023/04/03 04:56:57;;;;;;;;;;;4.90;99.90;;;;;;5008055;28;19913;-82
2023/04/03 04:59:27;;;;;;;;;;;5.00;99.90;;;;;;4996095;28;20343;-82
2023/04/03 05:01:59;;;;;;;;;;;5.10;99.90;;;;;;5011224;28;20354;-82
2023/04/03 05:04:25;;;;;;;;;;;5.10;99.90;;;;;;5007462;28;19960;-82
2023/04/03 05:06:51;;;;;;;;;;;5.20;99.90;;;;;;4993760;28;19949;-82
2023/04/03 05:09:20;;;;;;;;;;;5.10;99.90;;;;;;4996175;28;19913;-82
2023/04/03 05:11:49;;;;;;;;;;;5.10;99.90;;;;;;4991161;28;19905;-82
2023/04/03 05:14:15;;;;;;;;;;;5.10;99.90;;;;;;4991941;28;19905;-80
2023/04/03 05:16:42;;;;;;;;;;;5.10;99.90;;;;;;5004188;28;20269;-80
2023/04/03 05:19:09;;;;;;;;;;;5.00;99.90;;;;;;5000636;28;20008;-80
2023/04/03 05:21:35;;;;;;;;;;;5.00;99.90;;;;;;5004872;28;19910;-82
2023/04/03 05:24:03;;;;;;;;;;;4.90;99.90;;;;;;5013893;28;19913;-82
2023/04/03 05:26:31;;;;;;;;;;;4.90;99.90;;;;;;5012446;28;20488;-82
2023/04/03 05:28:57;;;;;;;;;;;5.00;99.90;;;;;;4994015;28;19968;-82
2023/04/03 05:31:22;;;;;;;;;;;5.10;99.90;;;;;;5009422;28;19909;-82
2023/04/03 05:33:48;;;;;;;;;;;5.00;99.90;;;;;;5001202;28;20432;-82
2023/04/03 05:36:14;;;;;;;;;;;5.10;99.90;;;;;;5001750;28;19912;-82
2023/04/03 05:38:41;;;;;;;;;;;5.20;99.90;;;;;;5004201;28;19909;-81
2023/04/03 05:41:06;;;;;;;;;;;5.30;99.90;;;;;;5006895;28;19933;-81
2023/04/03 05:43:33;;;;;;;;;;;5.30;99.90;;;;;;4999616;28;19909;-83
2023/04/03 05:46:07;;;;;;;;;;;5.30;99.90;;;;;;5003059;28;19927;-82
2023/04/03 05:48:34;;;;;;;;;;;5.20;99.90;;;;;;5006671;28;20012;-82
2023/04/03 05:51:01;;;;;;;;;;;5.30;99.90;;;;;;5000939;28;19913;-82
2023/04/03 05:53:30;;;;;;;;;;;5.40;99.90;;;;;;4982318;28;19921;-82
2023/04/03 05:56:03;;;;;;;;;;;5.50;99.90;;;;;;5006939;28;20007;-82
2023/04/03 05:58:32;;;;;;;;;;;5.60;99.90;;;;;;5012594;28;20807;-83
2023/04/03 06:00:58;;;;;;;;;;;5.50;99.90;;;;;;5002716;28;19919;-83
2023/04/03 06:03:29;;;;;;;;;;;5.70;99.90;;;;;;5004073;28;19905;-83
2023/04/03 06:05:57;;;;;;;;;;;5.70;99.90;;;;;;5013856;28;19913;-83
2023/04/03 06:08:24;;;;;;;;;;;5.80;99.90;;;;;;5004012;28;19936;-82
2023/04/03 06:10:52;;;;;;;;;;;5.80;99.90;;;;;;5002928;28;19959;-82
2023/04/03 06:13:17;;;;;;;;;;;5.80;99.90;;;;;;5006872;28;19906;-82
2023/04/03 06:15:56;;;;;;;;;;;5.80;99.90;;;;;;5010267;28;19952;-82
2023/04/03 06:18:23;;;;;;;;;;;5.70;99.90;;;;;;5002464;28;20453;-82
2023/04/03 06:20:50;;;;;;;;;;;5.70;99.90;;;;;;5001659;28;20275;-82
2023/04/03 06:23:17;;;;;;;;;;;5.70;99.90;;;;;;5007894;28;19906;-82
2023/04/03 06:25:45;;;;;;;;;;;5.70;99.90;;;;;;4997775;28;19909;-82
2023/04/03 06:28:21;;;;;;;;;;;5.70;99.90;;;;;;4998997;28;19910;-82
2023/04/03 06:30:50;;;;;;;;;;;5.70;99.90;;;;;;5003855;28;19993;-82
2023/04/03 06:33:17;;;;;;;;;;;5.60;99.90;;;;;;4998168;28;19967;-82
2023/04/03 06:35:49;;;;;;;;;;;5.60;99.90;;;;;;5007057;28;19997;-82
2023/04/03 06:38:19;;;;;;;;;;;5.80;99.90;;;;;;4999064;28;19920;-82
2023/04/03 06:40:47;;;;;;;;;;;5.70;99.90;;;;;;4989428;28;19905;-82
2023/04/03 06:43:21;;;;;;;;;;;5.70;99.90;;;;;;4991215;28;19910;-82
2023/04/03 06:45:52;;;;;;;;;;;5.90;99.90;;;;;;4999697;28;19913;-82
2023/04/03 06:48:21;;;;;;;;;;;5.80;99.90;;;;;;5002632;28;19952;-82
2023/04/03 06:50:47;;;;;;;;;;;5.80;99.90;;;;;;4988954;28;19913;-82
2023/04/03 06:53:14;;;;;;;;;;;5.90;99.90;;;;;;5000732;28;20270;-82
2023/04/03 06:55:47;;;;;;;;;;;5.90;99.90;;;;;;5001265;28;20012;-83
2023/04/03 06:58:21;;;;;;;;;;;5.80;99.90;;;;;;4988147;28;19905;-82
2023/04/03 07:00:47;;;;;;;;;;;5.80;99.90;;;;;;4983956;28;19905;-83
2023/04/03 07:03:13;;;;;;;;;;;5.60;99.90;;;;;;5000506;28;19906;-80
2023/04/03 07:05:38;;;;;;;;;;;5.80;99.90;;;;;;5003338;28;19910;-82
2023/04/03 07:08:06;;;;;;;;;;;5.90;99.90;;;;;;5011780;28;19920;-83
2023/04/03 07:10:32;;;;;;;;;;;5.80;99.90;;;;;;5005526;28;20672;-82
2023/04/03 07:13:05;;;;;;;;;;;5.60;99.90;;;;;;4998286;28;20007;-82
2023/04/03 07:15:36;;;;;;;;;;;5.60;99.90;;;;;;5006837;28;19910;-83
2023/04/03 07:18:14;;;;;;;;;;;5.80;99.90;;;;;;5006856;28;19911;-82
2023/04/03 07:20:44;;;;;;;;;;;6.00;99.90;;;;;;4998185;28;19959;-82
2023/04/03 07:23:12;;;;;;;;;;;6.20;99.90;;;;;;4996988;28;20513;-82
2023/04/03 07:25:43;;;;;;;;;;;6.30;99.90;;;;;;5000105;28;20453;-82
2023/04/03 07:28:18;;;;;;;;;;;6.50;99.90;;;;;;4996920;28;19909;-83
2023/04/03 07:31:02;;;;;;;;;;;6.80;99.90;;;;;;4995954;28;19968;-83
2023/04/03 07:33:28;;;;;;;;;;;6.80;99.90;;;;;;5005051;28;19924;-83
2023/04/03 07:36:00;;;;;;;;;;;7.10;99.90;;;;;;5003485;28;19906;-82
2023/04/03 07:38:29;;;;;;;;;;;7.30;99.90;;;;;;5003976;28;19912;-83
2023/04/03 07:40:57;;;;;;;;;;;8.00;99.90;;;;;;4999796;28;19945;-83
2023/04/03 07:43:24;;;;;;;;;;;9.40;99.90;;;;;;5002958;28;19952;-82
2023/04/03 07:45:51;;;;;;;;;;;10.80;97.90;;;;;;4982351;28;19992;-83
2023/04/03 07:48:20;;;;;;;;;;;11.50;95.10;;;;;;5003260;28;19992;-83
2023/04/03 07:51:16;;;;;;;;;;;11.00;94.20;;;;;;4999408;28;19910;-82
2023/04/03 07:53:41;;;;;;;;;;;11.50;93.80;;;;;;4987381;28;19913;-83
2023/04/03 07:56:12;;;;;;;;;;;11.90;92.00;;;;;;4987519;28;19932;-82
2023/04/03 07:58:43;;;;;;;;;;;12.70;89.70;;;;;;4996586;28;19909;-82
2023/04/03 08:01:09;;;;;;;;;;;14.00;81.30;;;;;;5000588;28;20679;-82
2023/04/03 08:03:37;;;;;;;;;;;15.30;71.20;;;;;;5003206;28;19911;-83
2023/04/03 08:06:14;;;;;;;;;;;16.80;64.70;;;;;;5000297;28;20006;-82
2023/04/03 08:08:44;;;;;;;;;;;16.80;60.50;;;;;;4989767;28;20350;-82
2023/04/03 08:11:28;;;;;;;;;;;18.70;59.70;;;;;;4995227;28;20067;-81
2023/04/03 08:13:55;;;;;;;;;;;20.50;53.20;;;;;;4994906;28;19956;-82
2023/04/03 08:16:27;;;;;;;;;;;18.70;52.20;;;;;;4998280;28;20574;-82
2023/04/03 08:18:55;;;;;;;;;;;14.70;58.60;;;;;;5001422;28;19921;-82
2023/04/03 08:21:22;;;;;;;;;;;14.00;59.40;;;;;;4983810;28;19955;-82
2023/04/03 08:23:52;;;;;;;;;;;12.80;61.60;;;;;;5002547;28;19913;-81
2023/04/03 08:26:21;;;;;;;;;;;10.80;63.90;;;;;;5003849;28;19916;-82
2023/04/03 08:28:47;;;;;;;;;;;9.90;68.30;;;;;;5001239;28;19913;-81
2023/04/03 08:31:15;;;;;;;;;;;9.50;69.30;;;;;;4996730;28;19971;-81
2023/04/03 08:33:47;;;;;;;;;;;8.40;72.50;;;;;;5000139;28;19956;-81
2023/04/03 08:36:21;;;;;;;;;;;10.70;70.30;;;;;;4996863;28;19909;-81
2023/04/03 08:38:53;;;;;;;;;;;10.90;67.10;;;;;;5005162;28;19945;-81
2023/04/03 08:41:39;;;;;;;;;;;11.10;67.00;;;;;;5003590;28;19909;-82
2023/04/03 08:44:23;;;;;;;;;;;9.10;69.60;;;;;;4995714;28;19921;-82
2023/04/03 08:47:08;;;;;;;;;;;8.40;74.80;;;;;;4999216;28;19952;-82
2023/04/03 08:49:59;;;;;;;;;;;10.00;71.50;;;;;;4999469;28;19921;-82
2023/04/03 08:52:29;;;;;;;;;;;10.40;68.20;;;;;;4998438;28;19962;-82
2023/04/03 08:55:01;;;;;;;;;;;12.40;64.20;;;;;;4995804;28;19906;-82
2023/04/03 08:57:55;;;;;;;;;;;14.40;59.20;;;;;;4996928;28;19946;-81
2023/04/03 09:00:23;;;;;;;;;;;14.70;58.00;;;;;;4988877;28;19941;-82
2023/04/03 09:02:51;;;;;;;;;;;12.20;60.40;;;;;;5010911;28;19905;-82
2023/04/03 09:05:19;;;;;;;;;;;10.80;65.00;;;;;;5011715;28;19932;-81
2023/04/03 09:08:06;;;;;;;;;;;10.00;68.00;;;;;;5006498;28;19953;-81
2023/04/03 09:10:43;;;;;;;;;;;12.70;62.00;;;;;;4999749;28;20008;-83
2023/04/03 09:13:21;;;;;;;;;;;12.90;61.80;;;;;;4992625;28;19964;-82
2023/04/03 09:15:46;;;;;;;;;;;13.30;59.30;;;;;;5001876;28;19905;-80
2023/04/03 09:18:15;;;;;;;;;;;10.90;62.40;;;;;;5000251;28;19912;-81
2023/04/03 09:21:01;;;;;;;;;;;9.60;65.90;;;;;;5004124;28;20364;-82
2023/04/03 09:24:03;;;;;;;;;;;10.50;67.20;;;;;;5002284;28;19914;-81
2023/04/03 09:26:35;;;;;;;;;;;12.30;61.60;;;;;;4971282;28;20395;-81
2023/04/03 09:29:06;;;;;;;;;;;10.70;63.20;;;;;;4995217;28;19961;-82
2023/04/03 09:31:40;;;;;;;;;;;9.50;65.90;;;;;;5005490;28;20430;-82
2023/04/03 09:34:14;;;;;;;;;;;8.00;68.30;;;;;;5006245;28;20590;-81
2023/04/03 09:36:45;;;;;;;;;;;10.50;66.00;;;;;;5002663;28;19905;-82
2023/04/03 09:39:15;;;;;;;;;;;13.70;57.70;;;;;;4995279;28;19988;-81
2023/04/03 09:41:54;;;;;;;;;;;12.90;58.00;;;;;;5005412;28;19906;-81
2023/04/03 09:44:25;;;;;;;;;;;11.00;60.60;;;;;;4996083;28;19909;-81
2023/04/03 09:46:52;;;;;;;;;;;11.40;61.90;;;;;;5002114;28;20520;-82
2023/04/03 09:49:19;;;;;;;;;;;11.70;60.20;;;;;;4997555;28;19913;-81
2023/04/03 09:51:45;;;;;;;;;;;10.60;61.40;;;;;;5000615;28;19909;-81
2023/04/03 09:54:32;;;;;;;;;;;10.60;62.50;;;;;;5000628;28;19913;-81
2023/04/03 09:57:07;;;;;;;;;;;9.80;62.70;;;;;;4988436;28;19909;-82
2023/04/03 09:59:33;;;;;;;;;;;9.40;64.70;;;;;;5008961;28;19913;-82
2023/04/03 10:02:17;;;;;;;;;;;9.20;63.20;;;;;;5002624;28;19947;-82
2023/04/03 10:04:52;;;;;;;;;;;8.90;64.40;;;;;;5000322;28;19905;-82
2023/04/03 10:07:29;;;;;;;;;;;8.30;65.80;;;;;;5004649;28;19909;-81
2023/04/03 10:10:25;;;;;;;;;;;8.00;67.70;;;;;;5001523;28;19983;-81
2023/04/03 10:13:06;;;;;;;;;;;8.10;68.50;;;;;;4996568;28;20267;-82
2023/04/03 10:15:35;;;;;;;;;;;8.50;66.60;;;;;;5008941;28;19913;-82
2023/04/03 10:18:02;;;;;;;;;;;8.20;66.50;;;;;;5004621;28;20371;-82
2023/04/03 10:20:36;;;;;;;;;;;8.00;68.60;;;;;;5004915;28;19913;-82
2023/04/03 10:23:20;;;;;;;;;;;7.50;70.90;;;;;;5002126;28;19917;-82
2023/04/03 10:25:55;;;;;;;;;;;7.20;71.00;;;;;;4991894;28;19902;-81
2023/04/03 10:28:28;;;;;;;;;;;6.70;72.80;;;;;;5006771;28;19910;-82
2023/04/03 10:31:16;;;;;;;;;;;6.80;73.10;;;;;;4998050;28;19909;-81
2023/04/03 10:33:53;;;;;;;;;;;6.60;74.40;;;;;;5001297;28;20047;-81
2023/04/03 10:36:34;;;;;;;;;;;6.60;75.40;;;;;;5000045;28;19906;-81
2023/04/03 10:39:09;;;;;;;;;;;6.60;76.00;;;;;;4995901;28;19936;-81
2023/04/03 10:41:43;;;;;;;;;;;6.20;76.80;;;;;;4999005;28;20355;-82
2023/04/03 10:44:28;;;;;;;;;;;6.30;77.10;;;;;;4993976;28;20365;-81
2023/04/03 10:47:01;;;;;;;;;;;6.30;75.80;;;;;;5005028;28;19944;-81
2023/04/03 10:49:36;;;;;;;;;;;6.90;74.70;;;;;;5007036;28;19917;-81
2023/04/03 10:52:04;;;;;;;;;;;7.00;73.50;;;;;;4998162;28;19987;-82
2023/04/03 10:54:50;;;;;;;;;;;7.40;71.60;;;;;;5001670;28;19918;-81
2023/04/03 10:57:19;;;;;;;;;;;7.10;70.20;;;;;;5000790;28;19905;-82
2023/04/03 10:59:47;;;;;;;;;;;7.00;70.30;;;;;;5008014;28;19916;-81
2023/04/03 11:02:24;;;;;;;;;;;6.80;71.40;;;;;;5002305;28;19984;-81
2023/04/03 11:04:53;;;;;;;;;;;7.00;71.50;;;;;;4999859;28;20361;-81
2023/04/03 11:07:23;;;;;;;;;;;7.30;72.80;;;;;;5003266;28;19940;-82
2023/04/03 11:09:52;;;;;;;;;;;8.00;70.10;;;;;;5001549;28;19909;-82
2023/04/03 11:12:24;;;;;;;;;;;8.20;67.50;;;;;;4996106;28;19920;-81
2023/04/03 11:14:51;;;;;;;;;;;8.40;67.50;;;;;;4998424;28;19913;-81
2023/04/03 11:17:39;;;;;;;;;;;8.70;67.60;;;;;;5001651;28;20343;-82
2023/04/03 11:20:08;;;;;;;;;;;8.60;66.40;;;;;;5000821;28;19971;-82
2023/04/03 11:22:42;;;;;;;;;;;8.20;65.20;;;;;;4991159;28;19905;-84
2023/04/03 11:25:11;;;;;;;;;;;8.10;65.70;;;;;;5001392;28;19917;-83
2023/04/03 11:27:51;;;;;;;;;;;8.00;66.40;;;;;;4996516;28;19905;-82
2023/04/03 11:30:20;;;;;;;;;;;7.90;66.80;;;;;;5001815;28;19906;-82
2023/04/03 11:33:03;;;;;;;;;;;7.90;65.40;;;;;;4995472;28;19940;-82
2023/04/03 11:35:31;;;;;;;;;;;7.60;65.40;;;;;;5008757;28;20289;-81
2023/04/03 11:38:00;;;;;;;;;;;7.60;66.20;;;;;;4999834;28;19909;-81
2023/04/03 11:40:29;;;;;;;;;;;8.20;66.80;;;;;;4996980;28;19911;-80
2023/04/03 11:43:07;;;;;;;;;;;8.30;64.20;;;;;;4999284;28;19909;-80
2023/04/03 11:45:54;;;;;;;;;;;8.70;64.70;;;;;;5001129;28;19917;-81
2023/04/03 11:48:35;;;;;;;;;;;9.00;63.00;;;;;;4985696;28;20000;-81
2023/04/03 11:51:20;;;;;;;;;;;9.00;62.60;;;;;;4989676;28;19976;-81
2023/04/03 11:53:47;;;;;;;;;;;9.60;63.00;;;;;;4995263;28;19956;-82
2023/04/03 11:56:31;;;;;;;;;;;9.40;61.20;;;;;;5001523;28;20002;-81
2023/04/03 11:59:19;;;;;;;;;;;9.30;61.20;;;;;;4997749;28;19906;-82
2023/04/03 12:02:00;;;;;;;;;;;9.50;61.10;;;;;;4997260;28;19995;-82
2023/04/03 12:04:37;;;;;;;;;;;9.40;60.00;;;;;;4998865;28;19927;-82
2023/04/03 12:07:16;;;;;;;;;;;9.20;61.20;;;;;;5001120;28;19909;-82
2023/04/03 12:09:43;;;;;;;;;;;9.20;60.80;;;;;;5003166;28;20580;-82
2023/04/03 12:12:27;;;;;;;;;;;8.70;61.40;;;;;;5004092;28;20359;-81
2023/04/03 12:14:54;;;;;;;;;;;8.30;62.60;;;;;;4986382;28;20004;-81
2023/04/03 12:17:26;;;;;;;;;;;7.60;63.30;;;;;;5003754;28;19964;-82
2023/04/03 12:19:53;;;;;;;;;;;7.10;64.10;;;;;;5006042;28;19972;-82
2023/04/03 12:22:22;;;;;;;;;;;6.90;65.10;;;;;;4998327;28;19909;-82
2023/04/03 12:24:52;;;;;;;;;;;7.10;64.80;;;;;;5002559;28;19909;-82
2023/04/03 12:27:27;;;;;;;;;;;7.10;65.00;;;;;;4999763;28;19959;-82
2023/04/03 12:30:05;;;;;;;;;;;7.30;63.60;;;;;;4999817;28;19913;-82
2023/04/03 12:32:51;;;;;;;;;;;7.20;63.30;;;;;;4982872;28;19915;-82
2023/04/03 12:35:23;;;;;;;;;;;6.90;63.90;;;;;;4996181;28;19906;-82
2023/04/03 12:40:52;;;;;;;;;;;7.30;63.10;;;;;;4994220;28;20477;-81
2023/04/03 12:43:41;;;;;;;;;;;7.80;63.10;;;;;;4982363;28;19960;-81
2023/04/03 12:46:15;;;;;;;;;;;8.10;63.00;;;;;;4999400;28;19937;-82
2023/04/03 12:48:44;;;;;;;;;;;8.10;62.30;;;;;;5005908;28;20400;-82
2023/04/03 12:51:31;;;;;;;;;;;8.10;62.20;;;;;;4986107;28;20669;-82
2023/04/03 12:54:02;;;;;;;;;;;8.20;62.20;;;;;;4990265;28;19918;-82
2023/04/03 12:56:42;;;;;;;;;;;7.90;62.70;;;;;;5003888;28;19921;-82
2023/04/03 12:59:17;;;;;;;;;;;8.10;62.40;;;;;;5003437;28;19913;-82
2023/04/03 13:01:42;;;;;;;;;;;7.90;62.90;;;;;;4996985;28;19905;-82
2023/04/03 13:04:11;;;;;;;;;;;7.90;61.00;;;;;;4987738;28;20427;-81
2023/04/03 13:06:43;;;;;;;;;;;8.10;62.60;;;;;;5004138;28;19909;-82
2023/04/03 13:09:38;;;;;;;;;;;8.20;60.90;;;;;;5004047;28;19924;-81
2023/04/03 13:12:12;;;;;;;;;;;8.40;60.60;;;;;;4983121;28;19996;-81
2023/04/03 13:14:40;;;;;;;;;;;8.20;60.20;;;;;;4999201;28;19913;-82
2023/04/03 13:17:15;;;;;;;;;;;8.30;60.10;;;;;;5014728;28;19913;-82
2023/04/03 13:19:42;;;;;;;;;;;8.10;60.40;;;;;;4997161;28;19905;-82
2023/04/03 13:22:30;;;;;;;;;;;8.20;60.50;;;;;;5004306;28;19941;-82
2023/04/03 13:24:57;;;;;;;;;;;8.10;60.20;;;;;;5003546;28;19963;-81
2023/04/03 13:27:26;;;;;;;;;;;7.80;60.70;;;;;;4984947;28;19913;-81
2023/04/03 13:29:54;;;;;;;;;;;8.10;60.20;;;;;;5002045;28;20259;-81
2023/04/03 13:32:21;;;;;;;;;;;8.60;59.80;;;;;;4997558;28;20749;-82
2023/04/03 13:34:47;;;;;;;;;;;8.50;59.70;;;;;;4987899;28;20358;-81
2023/04/03 13:37:20;;;;;;;;;;;8.60;59.60;;;;;;4996924;28;19906;-81
2023/04/03 13:39:55;;;;;;;;;;;8.40;59.10;;;;;;5004474;28;19909;-82
2023/04/03 13:42:29;;;;;;;;;;;8.30;59.20;;;;;;5008829;28;20004;-82
2023/04/03 13:45:14;;;;;;;;;;;8.40;60.00;;;;;;5005731;28;19909;-82
2023/04/03 13:48:07;;;;;;;;;;;8.60;60.00;;;;;;5002600;28;19906;-82
2023/04/03 13:51:00;;;;;;;;;;;8.40;60.00;;;;;;5011832;28;19909;-81
2023/04/03 13:53:27;;;;;;;;;;;8.20;59.70;;;;;;4980105;28;19921;-82
2023/04/03 13:55:52;;;;;;;;;;;8.10;60.00;;;;;;5003559;28;19909;-82
2023/04/03 13:58:21;;;;;;;;;;;7.90;61.00;;;;;;4985108;28;19913;-82
2023/04/03 14:00:56;;;;;;;;;;;7.90;61.40;;;;;;5002359;28;19957;-82
2023/04/03 14:03:28;;;;;;;;;;;7.70;61.70;;;;;;5001213;28;19909;-81
2023/04/03 14:05:55;;;;;;;;;;;7.70;62.80;;;;;;4984341;28;20975;-82
2023/04/03 14:08:21;;;;;;;;;;;7.70;62.30;;;;;;5006852;28;19952;-82
2023/04/03 14:10:49;;;;;;;;;;;7.80;62.50;;;;;;5007633;28;19964;-81
2023/04/03 14:13:20;;;;;;;;;;;8.00;62.10;;;;;;4982664;28;19936;-81
2023/04/03 14:15:48;;;;;;;;;;;8.40;61.10;;;;;;5000104;28;20679;-82
2023/04/03 14:18:16;;;;;;;;;;;8.60;60.70;;;;;;4999297;28;19912;-82
2023/04/03 14:20:44;;;;;;;;;;;8.40;60.20;;;;;;5003561;28;19996;-82
2023/04/03 14:23:12;;;;;;;;;;;8.20;59.90;;;;;;4999308;28;19956;-82
2023/04/03 14:25:40;;;;;;;;;;;7.50;61.60;;;;;;5007989;28;19909;-82
2023/04/03 14:28:14;;;;;;;;;;;7.50;62.00;;;;;;4996870;28;19909;-82
2023/04/03 14:30:48;;;;;;;;;;;7.60;61.90;;;;;;5005307;28;19912;-81
2023/04/03 14:33:18;;;;;;;;;;;7.50;62.20;;;;;;5010690;28;19967;-81
2023/04/03 14:35:45;;;;;;;;;;;7.50;63.00;;;;;;5003246;28;19912;-82
2023/04/03 14:38:22;;;;;;;;;;;7.40;63.30;;;;;;5008334;28;19937;-81
2023/04/03 14:40:47;;;;;;;;;;;7.30;63.10;;;;;;5007910;28;19909;-81
2023/04/03 14:43:26;;;;;;;;;;;7.20;64.50;;;;;;5004046;28;19916;-81
2023/04/03 14:45:56;;;;;;;;;;;7.20;64.00;;;;;;5003658;28;19905;-82
2023/04/03 14:48:25;;;;;;;;;;;7.10;64.00;;;;;;4995014;28;20420;-82
2023/04/03 14:50:51;;;;;;;;;;;6.90;63.50;;;;;;5001484;28;19906;-82
2023/04/03 14:53:18;;;;;;;;;;;6.90;64.50;;;;;;5002637;28;19920;-82
2023/04/03 14:55:50;;;;;;;;;;;7.20;64.60;;;;;;4997975;28;19916;-82
2023/04/03 14:58:21;;;;;;;;;;;7.30;63.90;;;;;;5002328;28;20787;-82